Yuriy Lisyanskiy — UIRX — position and weather

sailwx.info

Track history (hours):
 
Tides and Currents Weather Stations Pressure Air Temp Water Temp Dewpoint Dewpoint Depression Visibility Wind Speed Wind Dir Waves Ship Positions

Yuriy Lisyanskiy

Last reported at 2015-Jul-27 06:32 UTC. Time now 2015-Jul-30 02:04 UTC.
Position N 54°41' E 020°09'.

Length 64 m; draft 5.2 m.

Type: Other ship. MMSI: 273426110.

Date/timePositionNaut miles runAvg speedWind from/ knotsBaromVisibWave heightAir tempDewpointWater temp
2015-Jul-27 06:32N 54°41' E 020°09'  
2015-Jul-19 21:05N 54°39' E 019°50'4 6.8
2015-Jul-19 20:32N 54°42' E 019°45'8 8.4
2015-Jul-19 19:33N 54°48' E 019°36'4811.9
2015-Jul-19 15:33N 55°34' E 019°55'26710.7
2015-Jul-18 14:32N 59°38' E 023°18'1212.0
2015-Jul-18 13:33N 59°41' E 023°40'2211.0
2015-Jul-18 11:32N 59°47' E 024°23'39 9.8
2015-Jul-18 07:33N 59°54' E 025°39'1010.1
2015-Jul-18 06:32N 59°57' E 025°59'1010.1
2015-Jul-18 05:32N 59°59' E 026°19'1010.1
2015-Jul-18 04:33N 60°02' E 026°38'1110.0
2015-Jul-18 03:28N 59°60' E 026°59'79 9.7
2015-Jul-17 19:17N 60°00' E 029°38'810.5
2015-Jul-17 18:33N 59°57' E 029°52'10 9.6
2015-Jul-17 17:33N 59°53' E 030°10'3 2.7
2015-Jul-17 16:33N 59°55' E 030°14'0 0.0
2015-Jul-17 15:33N 59°55' E 030°14'0 0.0
2015-Jul-17 14:32N 59°55' E 030°14'0 0.0
2015-Jul-17 13:33N 59°55' E 030°14'0 0.0
2015-Jul-17 12:33N 59°55' E 030°14'0 0.0
2015-Jul-17 11:31N 59°55' E 030°14'0 0.0
2015-Jul-17 10:33N 59°55' E 030°14'0 0.0
2015-Jul-17 09:32N 59°55' E 030°14'0 0.0
2015-Jul-17 08:32N 59°55' E 030°14'0 0.0
2015-Jul-17 07:32N 59°55' E 030°14'  
Track history (hours):
 
Tides and Currents Weather Stations Pressure Air Temp Water Temp Dewpoint Dewpoint Depression Visibility Wind Speed Wind Dir Waves Ship Positions

Yuriy Lisyanskiy

Last reported at 2015-Jul-27 06:32 UTC. Time now 2015-Jul-30 02:04 UTC.
Position N 54°41' E 020°09'.

Length 64 m; draft 5.2 m.

Type: Other ship. MMSI: 273426110.

Date/timePositionNaut miles runAvg speedWind from/ knotsBaromVisibWave heightAir tempDewpointWater temp
2015-Jul-27 06:32N 54°41' E 020°09'  
2015-Jul-19 21:05N 54°39' E 019°50'4 6.8
2015-Jul-19 20:32N 54°42' E 019°45'8 8.4
2015-Jul-19 19:33N 54°48' E 019°36'4811.9
2015-Jul-19 15:33N 55°34' E 019°55'26710.7
2015-Jul-18 14:32N 59°38' E 023°18'1212.0
2015-Jul-18 13:33N 59°41' E 023°40'2211.0
2015-Jul-18 11:32N 59°47' E 024°23'39 9.8
2015-Jul-18 07:33N 59°54' E 025°39'1010.1
2015-Jul-18 06:32N 59°57' E 025°59'1010.1
2015-Jul-18 05:32N 59°59' E 026°19'1010.1
2015-Jul-18 04:33N 60°02' E 026°38'1110.0
2015-Jul-18 03:28N 59°60' E 026°59'79 9.7
2015-Jul-17 19:17N 60°00' E 029°38'810.5
2015-Jul-17 18:33N 59°57' E 029°52'10 9.6
2015-Jul-17 17:33N 59°53' E 030°10'3 2.7
2015-Jul-17 16:33N 59°55' E 030°14'0 0.0
2015-Jul-17 15:33N 59°55' E 030°14'0 0.0
2015-Jul-17 14:32N 59°55' E 030°14'0 0.0
2015-Jul-17 13:33N 59°55' E 030°14'0 0.0
2015-Jul-17 12:33N 59°55' E 030°14'0 0.0
2015-Jul-17 11:31N 59°55' E 030°14'0 0.0
2015-Jul-17 10:33N 59°55' E 030°14'0 0.0
2015-Jul-17 09:32N 59°55' E 030°14'0 0.0
2015-Jul-17 08:32N 59°55' E 030°14'0 0.0
2015-Jul-17 07:32N 59°55' E 030°14'  

Dump ship's entire track history